Time;durP1;ratioP1;P1;durP2;ratioP2;P2;SDS_P1;SDS_P2;PMS_P1;PMS_P2;Temp;Humidity;BMP_temperature;BMP_pressure;BME280_temperature;BME280_humidity;BME280_pressure;Samples;Min_cycle;Max_cycle;Signal;HPM_P1;HPM_P2
2023/03/06 00:00:52;;;;;;;5.63;5.10;;;1.60;99.90;;;;;;5054086;28;20195;-57
2023/03/06 00:03:19;;;;;;;5.90;4.63;;;1.60;99.90;;;;;;5039791;28;20690;-52
2023/03/06 00:05:46;;;;;;;8.53;5.17;;;1.60;99.90;;;;;;5045938;28;20543;-56
2023/03/06 00:08:13;;;;;;;5.77;4.43;;;1.60;99.90;;;;;;5044205;28;20584;-52
2023/03/06 00:10:40;;;;;;;6.20;4.17;;;1.60;99.90;;;;;;5044809;28;20202;-53
2023/03/06 00:13:12;;;;;;;4.97;4.47;;;1.60;99.90;;;;;;5048781;28;20697;-52
2023/03/06 00:15:40;;;;;;;5.37;4.33;;;1.50;99.90;;;;;;5041584;28;20886;-56
2023/03/06 00:18:29;;;;;;;5.17;3.93;;;1.50;99.90;;;;;;5040317;28;20202;-56
2023/03/06 00:20:55;;;;;;;5.40;4.27;;;1.50;99.90;;;;;;5047074;28;20203;-55
2023/03/06 00:23:22;;;;;;;6.17;4.57;;;1.50;99.90;;;;;;5041643;28;20246;-51
2023/03/06 00:25:49;;;;;;;7.27;4.63;;;1.40;99.90;;;;;;5045128;28;20202;-56
2023/03/06 00:28:17;;;;;;;6.77;4.93;;;1.50;99.90;;;;;;5042889;28;20215;-54
2023/03/06 00:30:46;;;;;;;8.57;5.33;;;1.50;99.90;;;;;;5039208;28;20933;-53
2023/03/06 00:33:12;;;;;;;8.43;4.80;;;1.50;99.90;;;;;;5048804;28;20329;-52
2023/03/06 00:35:40;;;;;;;6.13;5.33;;;1.50;99.90;;;;;;5042919;28;20207;-56
2023/03/06 00:38:09;;;;;;;6.43;5.03;;;1.50;99.90;;;;;;5043409;28;20642;-53
2023/03/06 00:40:36;;;;;;;5.77;4.90;;;1.40;99.90;;;;;;5041125;28;20842;-55
2023/03/06 00:43:02;;;;;;;6.13;4.73;;;1.40;99.90;;;;;;5049774;28;20792;-53
2023/03/06 00:45:30;;;;;;;6.40;4.67;;;1.40;99.90;;;;;;5034261;28;20214;-54
2023/03/06 00:47:57;;;;;;;6.20;5.40;;;1.40;99.90;;;;;;5047060;28;20538;-54
2023/03/06 00:50:24;;;;;;;6.67;4.97;;;1.50;99.90;;;;;;5043146;28;20208;-51
2023/03/06 00:52:52;;;;;;;6.53;5.57;;;1.50;99.90;;;;;;5044184;28;20306;-57
2023/03/06 00:55:19;;;;;;;7.23;5.77;;;1.40;99.90;;;;;;5041497;28;20203;-53
2023/03/06 00:57:45;;;;;;;8.10;5.60;;;1.40;99.90;;;;;;5043330;28;20203;-55
2023/03/06 01:00:35;;;;;;;11.10;6.67;;;1.40;99.90;;;;;;5030422;28;20307;-56
2023/03/06 01:03:02;;;;;;;7.67;6.27;;;1.40;99.90;;;;;;5050963;28;20728;-56
2023/03/06 01:05:30;;;;;;;8.07;6.60;;;1.30;99.90;;;;;;5037428;28;20214;-56
2023/03/06 01:07:59;;;;;;;9.90;7.50;;;1.30;99.90;;;;;;5047777;28;20744;-53
2023/03/06 01:10:27;;;;;;;11.73;8.73;;;1.20;99.90;;;;;;5038496;28;20913;-54
2023/03/06 01:12:54;;;;;;;12.13;8.43;;;1.20;99.90;;;;;;5051765;28;20231;-56
2023/03/06 01:15:43;;;;;;;11.60;8.67;;;1.20;99.90;;;;;;5033653;28;20345;-55
2023/03/06 01:18:10;;;;;;;17.73;9.57;;;1.20;99.90;;;;;;5050468;28;20208;-50
2023/03/06 01:20:59;;;;;;;13.37;9.93;;;1.20;99.90;;;;;;5043644;28;20225;-53
2023/03/06 01:23:26;;;;;;;16.67;10.73;;;1.20;99.90;;;;;;5038675;28;20226;-54
2023/03/06 01:25:55;;;;;;;13.40;9.60;;;1.30;99.90;;;;;;5042941;28;20209;-54
2023/03/06 01:28:22;;;;;;;16.23;10.80;;;1.30;99.90;;;;;;5040462;28;20689;-50
2023/03/06 01:31:11;;;;;;;16.23;10.37;;;1.30;99.90;;;;;;5032339;28;20222;-49
2023/03/06 01:33:39;;;;;;;14.93;10.07;;;1.30;99.90;;;;;;5048152;28;20214;-57
2023/03/06 01:36:08;;;;;;;14.83;9.70;;;1.40;99.90;;;;;;5045665;28;20213;-53
2023/03/06 01:38:35;;;;;;;13.97;10.07;;;1.30;99.90;;;;;;5044267;28;20203;-55
2023/03/06 01:41:03;;;;;;;14.53;9.70;;;1.30;99.90;;;;;;5045646;28;20199;-55
2023/03/06 01:43:31;;;;;;;13.00;8.80;;;1.30;99.90;;;;;;5051872;28;20268;-53
2023/03/06 01:46:28;;;;;;;13.33;9.53;;;1.30;99.90;;;;;;5047358;28;20215;-55
2023/03/06 01:48:57;;;;;;;13.57;8.50;;;1.30;99.90;;;;;;5046519;28;20226;-53
2023/03/06 01:51:30;;;;;;;16.50;8.73;;;1.30;99.90;;;;;;5041223;28;20213;-53
2023/03/06 01:54:00;;;;;;;14.13;8.80;;;1.40;99.90;;;;;;5042881;28;20207;-56
2023/03/06 01:56:27;;;;;;;12.60;8.47;;;1.40;99.90;;;;;;5039926;28;20819;-52
2023/03/06 01:58:54;;;;;;;13.43;9.10;;;1.30;99.90;;;;;;5042363;28;20206;-56
2023/03/06 02:01:23;;;;;;;13.30;8.20;;;1.40;99.90;;;;;;5028046;28;20198;-48
2023/03/06 02:03:51;;;;;;;11.83;8.27;;;1.40;99.90;;;;;;5050708;28;20227;-53
2023/03/06 02:06:20;;;;;;;12.33;8.00;;;1.40;99.90;;;;;;5041438;28;20210;-51
2023/03/06 02:08:51;;;;;;;11.93;8.17;;;1.40;99.90;;;;;;5039634;28;20296;-52
2023/03/06 02:11:19;;;;;;;11.40;7.87;;;1.40;99.90;;;;;;5042920;28;20265;-56
2023/03/06 02:14:08;;;;;;;13.27;8.97;;;1.40;99.90;;;;;;5043625;28;20217;-53
2023/03/06 02:16:35;;;;;;;15.03;8.83;;;1.40;99.90;;;;;;5047854;28;20193;-54
2023/03/06 02:19:07;;;;;;;15.37;8.10;;;1.40;99.90;;;;;;5028673;28;20257;-53
2023/03/06 02:21:36;;;;;;;16.80;9.07;;;1.40;99.90;;;;;;5042958;28;20286;-56
2023/03/06 02:24:16;;;;;;;19.20;9.40;;;1.40;99.90;;;;;;5040446;28;20198;-50
2023/03/06 02:26:46;;;;;;;16.27;9.83;;;1.40;99.90;;;;;;5044790;28;20613;-51
2023/03/06 02:29:15;;;;;;;14.67;8.93;;;1.30;99.90;;;;;;5038300;28;20280;-51
2023/03/06 02:31:42;;;;;;;14.97;8.80;;;1.30;99.90;;;;;;5042217;28;20700;-54
2023/03/06 02:34:52;;;;;;;16.97;9.20;;;1.40;99.90;;;;;;5039466;28;20206;-51
2023/03/06 02:37:40;;;;;;;16.97;9.67;;;1.40;99.90;;;;;;5057092;28;20762;-52
2023/03/06 02:40:11;;;;;;;18.03;10.27;;;1.30;99.90;;;;;;5048216;28;20621;-50
2023/03/06 02:42:46;;;;;;;17.50;10.57;;;1.40;99.90;;;;;;5057292;28;20241;-57
2023/03/06 02:45:17;;;;;;;16.97;10.93;;;1.30;99.90;;;;;;5042347;28;20213;-49
2023/03/06 02:47:44;;;;;;;20.60;10.13;;;1.30;99.90;;;;;;5047315;28;20211;-52
2023/03/06 02:50:11;;;;;;;16.33;9.87;;;1.30;99.90;;;;;;5034350;28;20226;-50
2023/03/06 02:52:38;;;;;;;19.23;10.30;;;1.30;99.90;;;;;;5057592;28;20229;-53
2023/03/06 02:55:05;;;;;;;17.33;9.93;;;1.30;99.90;;;;;;5043317;28;20203;-50
2023/03/06 02:57:34;;;;;;;18.77;9.90;;;1.30;99.90;;;;;;5048081;28;20196;-53
2023/03/06 03:00:03;;;;;;;17.10;10.00;;;1.30;99.90;;;;;;5044910;28;20615;-53
2023/03/06 03:02:32;;;;;;;18.10;10.33;;;1.30;99.90;;;;;;5051686;28;20267;-52
2023/03/06 03:04:59;;;;;;;19.60;10.60;;;1.30;99.90;;;;;;5041280;28;20245;-51
2023/03/06 03:07:26;;;;;;;19.67;10.73;;;1.30;99.90;;;;;;5049798;28;20307;-53
2023/03/06 03:09:53;;;;;;;21.43;11.40;;;1.30;99.90;;;;;;5055643;28;20711;-55
2023/03/06 03:12:21;;;;;;;19.77;11.10;;;1.20;99.90;;;;;;5043322;28;20969;-54
2023/03/06 03:14:48;;;;;;;17.77;10.13;;;1.20;99.90;;;;;;5046397;28;20249;-53
2023/03/06 03:17:17;;;;;;;17.13;9.07;;;1.20;99.90;;;;;;5041201;28;20211;-51
2023/03/06 03:19:46;;;;;;;18.20;9.60;;;1.20;99.90;;;;;;5044398;28;20272;-54
2023/03/06 03:22:16;;;;;;;20.13;9.97;;;1.20;99.90;;;;;;5045937;28;20226;-52
2023/03/06 03:24:44;;;;;;;16.60;9.27;;;1.20;99.90;;;;;;5045056;28;20211;-57
2023/03/06 03:27:11;;;;;;;16.63;8.87;;;1.20;99.90;;;;;;5040613;28;20199;-51
2023/03/06 03:29:38;;;;;;;17.30;9.47;;;1.20;99.90;;;;;;5049442;28;20231;-56
2023/03/06 03:32:06;;;;;;;15.10;9.20;;;1.10;99.90;;;;;;5042042;28;20255;-50
2023/03/06 03:34:34;;;;;;;15.50;9.13;;;1.10;99.90;;;;;;5031484;28;20219;-56
2023/03/06 03:37:01;;;;;;;16.60;10.13;;;1.10;99.90;;;;;;5050503;28;20207;-49
2023/03/06 03:39:27;;;;;;;19.03;10.33;;;1.10;99.90;;;;;;5047756;28;20930;-55
2023/03/06 03:41:54;;;;;;;14.83;9.27;;;1.10;99.90;;;;;;5044779;28;20233;-52
2023/03/06 03:44:22;;;;;;;16.60;9.53;;;1.10;99.90;;;;;;5037028;28;20211;-53
2023/03/06 03:46:49;;;;;;;16.67;8.40;;;1.10;99.90;;;;;;5045745;28;20230;-53
2023/03/06 03:49:20;;;;;;;18.33;9.23;;;1.10;99.90;;;;;;5045637;28;20308;-52
2023/03/06 03:52:10;;;;;;;15.63;8.87;;;1.00;99.90;;;;;;5039319;28;20261;-48
2023/03/06 03:54:38;;;;;;;13.20;8.43;;;1.00;99.90;;;;;;5043816;28;20332;-52
2023/03/06 03:57:08;;;;;;;16.87;8.70;;;1.00;99.90;;;;;;5041838;28;20226;-48
2023/03/06 03:59:39;;;;;;;17.07;9.37;;;1.00;99.90;;;;;;5040840;28;20201;-54
2023/03/06 04:02:35;;;;;;;14.03;8.20;;;0.90;99.90;;;;;;5061017;28;20399;-55
2023/03/06 04:05:27;;;;;;;14.83;8.47;;;0.90;99.90;;;;;;5060758;28;20200;-51
2023/03/06 04:07:56;;;;;;;14.50;8.67;;;0.90;99.90;;;;;;5036351;28;20232;-55
2023/03/06 04:10:22;;;;;;;16.60;9.20;;;0.90;99.90;;;;;;5050547;28;20218;-55
2023/03/06 04:12:50;;;;;;;16.27;8.57;;;0.90;99.90;;;;;;5054793;28;20229;-53
2023/03/06 04:15:17;;;;;;;18.17;9.47;;;0.90;99.90;;;;;;5044562;28;20222;-54
2023/03/06 04:17:46;;;;;;;16.30;8.67;;;0.90;99.90;;;;;;5044841;28;20241;-49
2023/03/06 04:20:15;;;;;;;15.80;8.93;;;0.80;99.90;;;;;;5049410;28;20284;-50
2023/03/06 04:22:44;;;;;;;17.57;9.37;;;0.80;99.90;;;;;;5041816;28;20229;-51
2023/03/06 04:25:13;;;;;;;19.10;9.50;;;0.80;99.90;;;;;;5046438;28;20614;-50
2023/03/06 04:27:40;;;;;;;17.07;9.00;;;0.80;99.90;;;;;;5043575;28;20246;-51
2023/03/06 04:30:08;;;;;;;13.67;8.07;;;0.80;99.90;;;;;;5039877;28;20237;-47
2023/03/06 04:32:35;;;;;;;17.43;8.57;;;0.80;99.90;;;;;;5046560;28;20750;-57
2023/03/06 04:35:02;;;;;;;14.50;7.57;;;0.80;99.90;;;;;;5046796;28;20245;-50
2023/03/06 04:37:34;;;;;;;15.77;8.63;;;0.70;99.90;;;;;;5044161;28;20480;-55
2023/03/06 04:40:02;;;;;;;14.87;6.97;;;0.70;99.90;;;;;;5043079;28;20203;-54
2023/03/06 04:42:30;;;;;;;13.10;6.47;;;0.60;99.90;;;;;;5052550;28;20240;-55
2023/03/06 04:44:57;;;;;;;12.03;6.40;;;0.60;99.90;;;;;;5044080;28;20209;-54
2023/03/06 04:47:23;;;;;;;12.50;6.67;;;0.60;99.90;;;;;;5049191;28;20206;-56
2023/03/06 04:49:50;;;;;;;11.20;6.60;;;0.50;99.90;;;;;;5063823;28;20209;-55
2023/03/06 04:52:17;;;;;;;13.97;6.83;;;0.50;99.90;;;;;;5059444;28;20224;-55
2023/03/06 04:54:44;;;;;;;17.53;6.97;;;0.50;99.90;;;;;;5047086;28;20209;-57
2023/03/06 04:57:13;;;;;;;16.40;6.93;;;0.50;99.90;;;;;;5045966;28;20205;-55
2023/03/06 04:59:41;;;;;;;20.33;7.57;;;0.40;99.90;;;;;;5044718;28;20274;-53
2023/03/06 05:02:08;;;;;;;20.23;6.70;;;0.40;99.90;;;;;;5042166;28;20235;-51
2023/03/06 05:04:35;;;;;;;15.83;6.43;;;0.40;99.90;;;;;;5058027;28;20197;-56
2023/03/06 05:07:02;;;;;;;11.90;6.17;;;0.40;99.90;;;;;;5040782;28;20210;-52
2023/03/06 05:09:28;;;;;;;11.20;6.17;;;0.40;99.90;;;;;;5033607;28;20225;-58
2023/03/06 05:11:56;;;;;;;11.23;5.73;;;0.40;99.90;;;;;;5056032;28;20586;-51
2023/03/06 05:14:22;;;;;;;9.93;5.37;;;0.30;99.90;;;;;;5050198;28;20224;-57
2023/03/06 05:16:54;;;;;;;13.63;6.47;;;0.30;99.90;;;;;;5044028;28;20198;-55
2023/03/06 05:19:20;;;;;;;20.40;7.10;;;0.30;99.90;;;;;;5040985;28;20265;-57
2023/03/06 05:21:48;;;;;;;13.03;6.90;;;0.30;99.90;;;;;;5045814;28;20225;-54
2023/03/06 05:24:14;;;;;;;11.60;6.00;;;0.30;99.90;;;;;;5042876;28;20259;-53
2023/03/06 05:26:41;;;;;;;10.63;5.57;;;0.30;99.90;;;;;;5040948;28;20212;-52
2023/03/06 05:29:07;;;;;;;9.13;5.10;;;0.20;99.90;;;;;;5045235;28;20208;-55
2023/03/06 05:31:34;;;;;;;11.30;5.30;;;0.20;99.90;;;;;;5043689;28;20215;-57
2023/03/06 05:34:02;;;;;;;9.07;4.83;;;0.20;99.90;;;;;;5050198;28;20225;-57
2023/03/06 05:36:29;;;;;;;14.13;5.60;;;0.20;99.90;;;;;;5044772;28;20267;-57
2023/03/06 05:38:57;;;;;;;15.03;6.10;;;0.20;99.90;;;;;;5040250;28;20206;-56
2023/03/06 05:41:24;;;;;;;10.87;5.20;;;0.20;99.90;;;;;;5043466;28;20621;-57
2023/03/06 05:43:52;;;;;;;11.47;5.23;;;0.20;99.90;;;;;;5044192;28;20223;-55
2023/03/06 05:46:20;;;;;;;10.73;4.93;;;0.10;99.90;;;;;;5055660;28;20224;-57
2023/03/06 05:48:47;;;;;;;10.13;4.57;;;0.10;99.90;;;;;;5046269;28;20208;-48
2023/03/06 05:51:15;;;;;;;11.03;4.57;;;0.10;99.90;;;;;;5049560;28;20982;-58
2023/03/06 05:53:41;;;;;;;11.60;4.70;;;0.10;99.90;;;;;;5046252;28;20224;-51
2023/03/06 05:56:09;;;;;;;10.10;4.40;;;0.10;99.90;;;;;;5041481;28;20197;-54
2023/03/06 05:58:37;;;;;;;7.70;3.80;;;0.10;99.90;;;;;;5043212;28;20208;-53
2023/03/06 06:01:09;;;;;;;8.27;3.80;;;0.10;99.90;;;;;;5048240;28;20269;-56
2023/03/06 06:03:35;;;;;;;5.40;3.57;;;0.00;99.90;;;;;;5056447;28;20222;-53
2023/03/06 06:06:04;;;;;;;6.27;3.40;;;0.10;99.90;;;;;;5042858;28;21127;-57
2023/03/06 06:08:32;;;;;;;6.90;4.10;;;0.00;99.90;;;;;;5046686;28;20824;-57
2023/03/06 06:10:59;;;;;;;7.03;3.70;;;0.10;99.90;;;;;;5050905;28;20222;-53
2023/03/06 06:13:26;;;;;;;7.53;3.73;;;0.10;99.90;;;;;;5044420;28;20232;-56
2023/03/06 06:15:54;;;;;;;7.33;4.33;;;0.10;99.90;;;;;;5040848;28;20242;-51
2023/03/06 06:18:21;;;;;;;11.67;5.20;;;0.20;99.90;;;;;;5043042;28;20219;-57
2023/03/06 06:20:47;;;;;;;7.00;4.13;;;0.20;99.90;;;;;;5046841;28;20617;-53
2023/03/06 06:23:15;;;;;;;24.50;7.73;;;0.20;99.90;;;;;;5043966;28;20294;-57
2023/03/06 06:26:06;;;;;;;11.27;4.87;;;0.20;99.90;;;;;;5052476;28;20205;-57
2023/03/06 06:28:33;;;;;;;10.10;4.40;;;0.20;99.90;;;;;;5039197;28;20232;-56
2023/03/06 06:31:00;;;;;;;8.10;4.60;;;0.20;99.90;;;;;;5049237;28;20846;-57
2023/03/06 06:33:27;;;;;;;7.27;4.57;;;0.20;99.90;;;;;;5050837;28;20217;-57
2023/03/06 06:35:53;;;;;;;10.60;4.80;;;0.20;99.90;;;;;;5046448;28;20287;-51
2023/03/06 06:38:20;;;;;;;10.77;4.67;;;0.20;99.90;;;;;;5042924;28;20641;-56
2023/03/06 06:40:47;;;;;;;8.03;4.33;;;0.30;99.90;;;;;;5045117;28;20561;-50
2023/03/06 06:43:33;;;;;;;9.97;5.10;;;0.30;99.90;;;;;;5040861;28;20239;-57
2023/03/06 06:46:01;;;;;;;6.87;5.20;;;0.40;99.90;;;;;;5046139;28;20288;-54
2023/03/06 06:48:28;;;;;;;9.90;5.43;;;0.40;99.90;;;;;;5050178;28;20703;-52
2023/03/06 06:51:13;;;;;;;12.13;5.87;;;0.40;99.90;;;;;;5045971;28;20268;-56
2023/03/06 06:54:00;;;;;;;16.90;6.70;;;0.50;99.90;;;;;;5031412;28;20232;-53
2023/03/06 06:56:28;;;;;;;24.10;6.80;;;0.50;99.90;;;;;;5052505;28;20212;-56
2023/03/06 06:58:58;;;;;;;31.60;6.73;;;0.50;99.90;;;;;;5034132;28;20448;-55
2023/03/06 07:01:25;;;;;;;72.10;7.97;;;0.50;99.90;;;;;;5042311;28;20200;-53
2023/03/06 07:03:52;;;;;;;26.07;7.13;;;0.40;99.90;;;;;;5044520;28;20253;-51
2023/03/06 07:06:19;;;;;;;23.90;6.13;;;0.40;99.90;;;;;;5048729;28;20208;-56
2023/03/06 07:08:47;;;;;;;16.80;5.73;;;0.40;99.90;;;;;;5045702;28;20205;-50
2023/03/06 07:11:32;;;;;;;15.40;6.90;;;0.40;99.90;;;;;;5055982;28;20228;-53
2023/03/06 07:14:25;;;;;;;19.23;6.53;;;0.50;99.90;;;;;;5037568;28;20216;-54
2023/03/06 07:16:52;;;;;;;22.80;6.43;;;0.50;99.90;;;;;;5053050;28;20292;-52
2023/03/06 07:19:18;;;;;;;13.90;6.37;;;0.50;99.90;;;;;;5043636;28;20206;-56
2023/03/06 07:21:45;;;;;;;22.80;6.23;;;0.50;99.90;;;;;;5037502;28;21067;-51
2023/03/06 07:24:12;;;;;;;9.70;5.67;;;0.50;99.90;;;;;;5049833;28;20205;-49
2023/03/06 07:26:39;;;;;;;14.17;6.03;;;0.50;99.90;;;;;;5035914;28;20202;-55
2023/03/06 07:29:27;;;;;;;9.50;5.67;;;0.50;99.90;;;;;;5032005;28;20220;-53
2023/03/06 07:31:53;;;;;;;15.37;6.13;;;0.60;99.90;;;;;;5055224;28;20220;-53
2023/03/06 07:34:22;;;;;;;9.80;5.33;;;0.60;99.90;;;;;;5049553;28;20797;-49
2023/03/06 07:36:50;;;;;;;38.60;6.97;;;0.60;99.90;;;;;;5051761;28;20218;-55
2023/03/06 07:39:17;;;;;;;8.47;5.40;;;0.70;99.90;;;;;;5053683;28;20539;-45
2023/03/06 07:41:44;;;;;;;7.87;4.90;;;0.70;99.90;;;;;;5045292;28;20229;-56
2023/03/06 07:44:11;;;;;;;8.00;4.77;;;0.70;99.90;;;;;;5055471;28;20201;-50
2023/03/06 07:46:40;;;;;;;16.20;6.47;;;0.80;99.90;;;;;;5033839;28;20271;-56
2023/03/06 07:49:07;;;;;;;6.50;4.50;;;0.80;99.90;;;;;;5055589;28;20201;-50
2023/03/06 07:51:34;;;;;;;12.67;5.60;;;0.80;99.90;;;;;;5046399;28;20952;-56
2023/03/06 07:54:01;;;;;;;8.00;5.27;;;0.90;99.90;;;;;;5051833;28;20192;-56
2023/03/06 07:56:28;;;;;;;8.57;4.80;;;0.80;99.90;;;;;;5036386;28;20282;-52
2023/03/06 07:58:54;;;;;;;10.90;5.27;;;0.90;99.90;;;;;;5049134;28;20236;-51
2023/03/06 08:01:23;;;;;;;9.07;5.83;;;1.00;99.90;;;;;;5037603;28;20197;-47
2023/03/06 08:03:52;;;;;;;10.97;5.77;;;1.00;99.90;;;;;;5048124;28;20222;-52
2023/03/06 08:06:20;;;;;;;10.50;5.40;;;1.00;99.90;;;;;;5048199;28;20221;-48
2023/03/06 08:08:49;;;;;;;8.77;5.47;;;1.00;99.90;;;;;;5043789;28;20294;-53
2023/03/06 08:11:18;;;;;;;9.70;5.80;;;1.00;99.90;;;;;;5049279;28;20699;-48
2023/03/06 08:13:47;;;;;;;8.37;5.50;;;1.00;99.90;;;;;;5052620;28;20226;-54
2023/03/06 08:16:16;;;;;;;10.63;5.70;;;1.00;99.90;;;;;;5046369;28;20209;-47
2023/03/06 08:18:42;;;;;;;10.20;5.67;;;1.10;99.90;;;;;;5046567;28;20193;-55
2023/03/06 08:21:13;;;;;;;10.40;5.50;;;1.10;99.90;;;;;;5056050;28;20656;-51
2023/03/06 08:23:41;;;;;;;8.93;5.20;;;1.20;99.90;;;;;;5048425;28;20236;-56
2023/03/06 08:26:11;;;;;;;12.83;6.27;;;1.10;99.90;;;;;;5051191;28;20627;-49
2023/03/06 08:28:39;;;;;;;14.83;5.73;;;1.20;99.90;;;;;;5051101;28;20210;-56
2023/03/06 08:31:31;;;;;;;13.43;6.40;;;1.20;99.90;;;;;;5052663;28;20915;-55
2023/03/06 08:33:59;;;;;;;9.70;5.60;;;1.20;99.90;;;;;;5040591;28;20225;-56
2023/03/06 08:36:27;;;;;;;8.70;5.60;;;1.20;99.90;;;;;;5044040;28;20742;-55
2023/03/06 08:38:54;;;;;;;9.07;5.40;;;1.20;99.90;;;;;;5054906;28;20198;-55
2023/03/06 08:41:44;;;;;;;8.23;5.47;;;1.20;99.90;;;;;;5047155;28;20214;-57
2023/03/06 08:44:11;;;;;;;9.47;5.53;;;1.20;99.90;;;;;;5049182;28;20209;-49
2023/03/06 08:46:41;;;;;;;9.13;5.57;;;1.30;99.90;;;;;;5050474;28;20234;-56
2023/03/06 08:49:09;;;;;;;10.17;6.03;;;1.30;99.90;;;;;;5038702;28;20701;-45
2023/03/06 08:51:38;;;;;;;10.27;5.67;;;1.40;99.90;;;;;;5052263;28;20312;-55
2023/03/06 08:54:05;;;;;;;9.50;5.70;;;1.40;99.90;;;;;;5050424;28;20233;-51
2023/03/06 08:56:33;;;;;;;7.90;5.50;;;1.50;99.90;;;;;;5041031;28;20220;-55
2023/03/06 08:59:03;;;;;;;8.20;5.20;;;1.40;99.90;;;;;;5043199;28;20547;-54
2023/03/06 09:01:32;;;;;;;11.67;6.37;;;1.50;99.90;;;;;;5041016;28;20188;-51
2023/03/06 09:04:20;;;;;;;8.07;4.90;;;1.60;99.90;;;;;;5037301;28;20224;-54
2023/03/06 09:06:48;;;;;;;8.20;5.17;;;1.70;99.90;;;;;;5046850;28;20192;-49
2023/03/06 09:09:15;;;;;;;8.10;4.90;;;1.70;99.90;;;;;;5052871;28;20212;-53
2023/03/06 09:11:42;;;;;;;7.77;5.03;;;1.70;99.90;;;;;;5039966;28;21041;-51
2023/03/06 09:14:09;;;;;;;7.03;5.27;;;1.70;99.90;;;;;;5052892;28;20202;-52
2023/03/06 09:16:35;;;;;;;10.37;5.63;;;1.80;99.90;;;;;;5053074;28;20195;-52
2023/03/06 09:19:03;;;;;;;5.60;3.97;;;1.80;99.90;;;;;;5039698;28;20296;-52
2023/03/06 09:21:32;;;;;;;7.50;4.70;;;1.80;99.90;;;;;;5055495;28;20191;-50
2023/03/06 09:24:01;;;;;;;8.20;5.20;;;1.90;99.90;;;;;;5054684;28;20289;-49
2023/03/06 09:26:28;;;;;;;9.80;5.33;;;1.90;99.90;;;;;;5039526;28;20198;-48
2023/03/06 09:28:55;;;;;;;8.30;4.97;;;1.90;99.90;;;;;;5055402;28;20205;-49
2023/03/06 09:31:22;;;;;;;6.50;5.27;;;1.90;99.90;;;;;;5040164;28;20250;-53
2023/03/06 09:33:49;;;;;;;8.00;5.37;;;2.00;99.90;;;;;;5040453;28;20237;-52
2023/03/06 09:36:19;;;;;;;7.40;4.93;;;2.10;99.90;;;;;;5048483;28;20201;-52
2023/03/06 09:38:48;;;;;;;7.17;5.53;;;2.00;99.90;;;;;;5053796;28;20211;-50
2023/03/06 09:41:25;;;;;;;7.10;5.60;;;2.10;99.90;;;;;;5053554;28;20194;-53
2023/03/06 09:43:53;;;;;;;6.30;5.03;;;2.10;99.90;;;;;;5041534;28;20291;-53
2023/03/06 09:46:27;;;;;;;6.37;5.03;;;2.20;99.90;;;;;;5040165;28;20215;-50
2023/03/06 09:49:09;;;;;;;8.17;5.23;;;2.20;99.90;;;;;;5049450;28;20210;-48
2023/03/06 09:51:46;;;;;;;7.30;4.80;;;2.30;99.90;;;;;;5045807;28;20526;-53
2023/03/06 09:54:15;;;;;;;9.03;5.27;;;2.30;99.90;;;;;;5047071;28;20199;-53
2023/03/06 09:56:48;;;;;;;5.23;4.23;;;2.30;99.90;;;;;;5049785;28;20677;-51
2023/03/06 09:59:20;;;;;;;7.33;5.30;;;2.30;99.90;;;;;;5033475;28;20531;-54
2023/03/06 10:01:57;;;;;;;8.37;4.97;;;2.30;99.90;;;;;;5040761;28;20202;-51
2023/03/06 10:04:34;;;;;;;11.33;5.70;;;2.40;99.90;;;;;;5043372;28;20194;-49
2023/03/06 10:07:11;;;;;;;13.00;5.83;;;2.50;99.90;;;;;;5035317;28;20602;-52
2023/03/06 10:09:45;;;;;;;14.77;5.70;;;2.70;99.90;;;;;;5052020;28;20193;-52
2023/03/06 10:12:25;;;;;;;7.87;5.40;;;2.90;99.90;;;;;;5054978;28;20607;-52
2023/03/06 10:15:05;;;;;;;6.87;4.97;;;3.00;99.90;;;;;;5047166;28;20324;-50
2023/03/06 10:17:37;;;;;;;7.63;4.07;;;3.10;99.90;;;;;;5038851;28;20219;-51
2023/03/06 10:20:19;;;;;;;9.20;4.87;;;3.00;99.90;;;;;;5053899;28;20196;-52
2023/03/06 10:23:09;;;;;;;10.77;5.20;;;3.00;99.90;;;;;;5038485;28;20218;-53
2023/03/06 10:25:43;;;;;;;7.93;4.63;;;3.20;99.90;;;;;;5045738;28;20859;-50
2023/03/06 10:28:17;;;;;;;5.43;4.00;;;3.30;99.90;;;;;;5040787;28;20253;-52
2023/03/06 10:30:51;;;;;;;6.87;3.97;;;3.40;99.90;;;;;;5042818;28;20285;-50
2023/03/06 10:33:33;;;;;;;8.30;4.70;;;3.50;99.90;;;;;;5042296;28;20253;-52
2023/03/06 10:36:00;;;;;;;6.70;3.50;;;3.60;99.90;;;;;;5056442;28;20209;-50
2023/03/06 10:38:36;;;;;;;8.30;4.17;;;3.50;99.90;;;;;;5035592;28;20925;-48
2023/03/06 10:41:10;;;;;;;7.33;4.47;;;3.50;99.90;;;;;;5049784;28;20309;-49
2023/03/06 10:43:41;;;;;;;7.10;4.97;;;3.40;99.90;;;;;;5044506;28;20237;-49
2023/03/06 10:46:10;;;;;;;4.67;3.97;;;3.40;99.90;;;;;;5047717;28;20206;-53
2023/03/06 10:48:40;;;;;;;8.50;4.50;;;3.40;99.90;;;;;;5048732;28;20187;-52
2023/03/06 10:51:14;;;;;;;5.57;3.90;;;3.40;99.90;;;;;;5043580;28;20355;-51
2023/03/06 10:53:53;;;;;;;5.77;3.50;;;3.40;99.90;;;;;;5028837;28;20310;-49
2023/03/06 10:56:29;;;;;;;6.03;3.37;;;3.40;99.90;;;;;;5051220;28;20203;-55
2023/03/06 10:59:08;;;;;;;6.03;3.47;;;3.40;99.90;;;;;;5059518;28;20654;-47
2023/03/06 11:01:36;;;;;;;4.07;2.87;;;3.30;99.90;;;;;;5042380;28;20237;-50
2023/03/06 11:04:16;;;;;;;5.53;2.87;;;3.30;99.90;;;;;;5059442;28;20252;-47
2023/03/06 11:06:44;;;;;;;3.83;3.23;;;3.50;99.90;;;;;;5047678;28;20235;-50
2023/03/06 11:09:19;;;;;;;4.77;2.90;;;3.50;99.90;;;;;;5044378;28;20403;-53
2023/03/06 11:11:46;;;;;;;4.23;2.47;;;3.60;99.90;;;;;;5048183;28;20685;-47
2023/03/06 11:14:17;;;;;;;3.93;1.80;;;3.70;99.90;;;;;;5043092;28;20241;-51
2023/03/06 11:16:51;;;;;;;6.77;2.87;;;3.80;99.90;;;;;;5044725;28;20217;-50
2023/03/06 11:19:22;;;;;;;4.63;2.90;;;4.20;99.90;;;;;;5041718;28;20234;-52
2023/03/06 11:22:00;;;;;;;5.60;2.20;;;4.20;99.90;;;;;;5056538;28;20217;-48
2023/03/06 11:24:35;;;;;;;6.83;2.57;;;4.30;99.90;;;;;;5033257;28;20211;-50
2023/03/06 11:27:17;;;;;;;4.03;2.53;;;4.30;99.90;;;;;;5051548;28;20628;-53
2023/03/06 11:29:49;;;;;;;3.03;1.90;;;4.30;99.90;;;;;;5045801;28;20199;-50
2023/03/06 11:32:23;;;;;;;2.93;1.60;;;4.30;99.90;;;;;;5040411;28;20226;-52
2023/03/06 11:35:13;;;;;;;1.80;1.67;;;4.50;99.90;;;;;;5048330;28;20210;-52
2023/03/06 11:37:46;;;;;;;3.23;1.07;;;4.50;99.90;;;;;;5047092;28;20897;-50
2023/03/06 11:40:18;;;;;;;2.30;1.33;;;4.80;99.90;;;;;;5036115;28;20337;-52
2023/03/06 11:42:51;;;;;;;2.17;1.37;;;4.70;99.90;;;;;;5050326;28;20215;-49
2023/03/06 11:45:30;;;;;;;3.27;1.23;;;4.70;99.90;;;;;;5042795;28;20223;-50
2023/03/06 11:48:03;;;;;;;2.37;1.17;;;4.60;99.90;;;;;;5046266;28;20235;-47
2023/03/06 11:50:53;;;;;;;2.30;1.10;;;4.60;99.90;;;;;;5048318;28;20219;-48
2023/03/06 11:53:22;;;;;;;5.67;1.10;;;4.60;99.90;;;;;;5055618;28;20715;-54
2023/03/06 11:55:58;;;;;;;3.03;0.60;;;4.50;99.90;;;;;;5033992;28;20206;-48
2023/03/06 11:58:41;;;;;;;1.00;0.60;;;4.50;99.90;;;;;;5053507;28;20205;-48
2023/03/06 12:01:35;;;;;;;2.53;0.70;;;4.70;99.90;;;;;;5047503;28;20793;-51
2023/03/06 12:04:37;;;;;;;2.53;0.70;;;4.90;99.90;;;;;;5046853;28;20214;-51
2023/03/06 12:07:19;;;;;;;1.57;0.60;;;5.00;99.90;;;;;;5046780;28;20742;-51
2023/03/06 12:09:54;;;;;;;1.27;0.67;;;5.20;99.90;;;;;;5044869;28;20195;-50
2023/03/06 12:12:47;;;;;;;2.80;1.03;;;5.20;99.90;;;;;;5032784;28;20227;-50
2023/03/06 12:15:48;;;;;;;2.13;1.27;;;5.20;99.90;;;;;;5051261;28;20194;-48
2023/03/06 12:18:36;;;;;;;1.33;0.70;;;5.10;99.90;;;;;;5041531;28;20230;-51
2023/03/06 12:21:07;;;;;;;0.90;0.50;;;5.10;99.90;;;;;;5054142;28;20258;-52
2023/03/06 12:23:51;;;;;;;4.00;0.80;;;5.00;99.90;;;;;;5043997;28;20204;-48
2023/03/06 12:26:36;;;;;;;4.47;0.80;;;5.00;99.90;;;;;;5032480;28;20205;-54
2023/03/06 12:29:22;;;;;;;2.67;0.60;;;4.90;99.90;;;;;;5052302;28;20203;-48
2023/03/06 12:32:01;;;;;;;0.77;0.50;;;4.80;99.90;;;;;;5045322;28;20215;-47
2023/03/06 12:34:43;;;;;;;1.73;0.47;;;4.80;99.90;;;;;;5034287;28;21311;-48
2023/03/06 12:37:21;;;;;;;1.17;0.73;;;4.80;99.90;;;;;;5044239;28;20238;-49
2023/03/06 12:40:15;;;;;;;4.07;0.60;;;4.90;99.90;;;;;;5049355;28;20206;-51
2023/03/06 12:43:00;;;;;;;1.87;0.30;;;4.90;99.90;;;;;;5035825;28;20227;-47
2023/03/06 12:45:31;;;;;;;3.53;0.67;;;4.90;99.90;;;;;;5049340;28;20192;-48
2023/03/06 12:47:58;;;;;;;2.37;0.60;;;4.80;99.90;;;;;;5057419;28;20202;-51
2023/03/06 12:50:28;;;;;;;1.07;0.97;;;4.80;99.90;;;;;;5048104;28;20265;-48
2023/03/06 12:52:58;;;;;;;1.67;0.40;;;4.80;99.90;;;;;;5054012;28;20280;-49
2023/03/06 12:55:26;;;;;;;2.93;0.60;;;4.80;99.90;;;;;;5040147;28;20199;-52
2023/03/06 12:57:53;;;;;;;4.40;0.80;;;4.70;99.90;;;;;;5045334;28;20203;-52
2023/03/06 13:00:53;;;;;;;3.23;0.40;;;4.80;99.90;;;;;;5030534;28;20199;-54
2023/03/06 13:03:29;;;;;;;2.50;1.27;;;5.00;99.90;;;;;;5040581;28;20322;-52
2023/03/06 13:06:20;;;;;;;1.23;0.60;;;5.00;99.90;;;;;;5044504;28;20673;-51
2023/03/06 13:09:14;;;;;;;3.00;0.50;;;5.10;99.90;;;;;;5042246;28;20286;-51
2023/03/06 13:12:11;;;;;;;2.67;0.50;;;5.00;99.90;;;;;;5044614;28;20204;-50
2023/03/06 13:14:54;;;;;;;1.10;0.40;;;5.10;99.90;;;;;;5032840;28;21778;-52